Date,TemperatureHighF,TemperatureAvgF,TemperatureLowF,DewpointHighF,DewpointAvgF,DewpointLowF,HumidityHigh,HumidityAvg,HumidityLow,PressureMaxIn,PressureMinIn,WindSpeedMaxMPH,WindSpeedAvgMPH,GustSpeedMaxMPH,PrecipitationSumIn
2013-1-1,33,20,12,-100,-100,-100,0,0,100,0.00,40.00,0,-999,0,0.00
2013-1-2,41,20,10,-100,-100,-100,0,0,100,0.00,40.00,0,-999,0,0.02
2013-1-3,41,24,13,-100,-100,-100,0,0,100,0.00,40.00,0,-999,0,0.00
2013-1-4,41,26,18,-100,-100,-100,0,0,100,0.00,40.00,0,-999,0,0.00
2013-1-5,48,32,19,-100,-100,-100,0,0,100,0.00,40.00,0,-999,0,0.00
2013-1-6,35,30,25,-100,-100,-100,0,0,100,0.00,40.00,0,-999,0,0.01
2013-1-7,45,30,18,-100,-100,-100,0,0,100,0.00,40.00,0,-999,0,0.00
2013-1-8,43,30,24,-100,-100,-100,0,0,100,0.00,40.00,0,-999,0,0.00
2013-1-9,50,37,25,-100,-100,-100,0,0,100,0.00,40.00,0,-999,0,0.01
2013-1-10,26,20,13,-100,-100,-100,0,0,100,0.00,40.00,0,-999,0,0.01
2013-1-11,25,20,11,-100,-100,-100,0,0,100,0.00,40.00,0,-999,0,0.02
2013-1-12,28,15,2,-100,-100,-100,0,0,100,0.00,40.00,0,-999,0,0.01
2013-1-13,30,13,-2,-100,-100,-100,0,0,100,0.00,40.00,0,-999,0,0.00
2013-1-14,33,19,1,-100,-100,-100,0,0,100,0.00,40.00,0,-999,0,0.00
2013-1-15,47,33,19,-100,-100,-100,0,0,100,0.00,40.00,0,-999,0,0.00
2013-1-16,45,30,20,-100,-100,-100,0,0,100,0.00,40.00,0,-999,0,0.00
2013-1-17,42,24,14,-100,-100,-100,0,0,100,0.00,40.00,0,-999,0,0.00
2013-1-18,42,24,13,-100,-100,-100,0,0,100,0.00,40.00,0,-999,0,0.00
2013-1-19,42,22,13,-100,-100,-100,0,0,100,0.00,40.00,0,-999,0,0.00
2013-1-20,44,25,13,-100,-100,-100,0,0,100,0.00,40.00,0,-999,0,0.00
2013-1-21,46,27,16,-100,-100,-100,0,0,100,0.00,40.00,0,-999,0,0.00
2013-1-22,44,30,19,-100,-100,-100,0,0,100,0.00,40.00,0,-999,0,0.00
2013-1-23,52,42,30,-100,-100,-100,0,0,100,0.00,40.00,0,-999,0,0.00
2013-1-24,41,37,34,-100,-100,-100,0,0,100,0.00,40.00,0,-999,0,0.02
2013-1-25,47,37,34,-100,-100,-100,0,0,100,0.00,40.00,0,-999,0,0.01
2013-1-26,46,36,30,-100,-100,-100,0,0,100,0.00,40.00,0,-999,0,0.00
2013-1-27,34,28,18,-100,-100,-100,0,0,100,0.00,40.00,0,-999,0,0.00
2013-1-28,35,25,15,-100,-100,-100,0,0,100,0.00,40.00,0,-999,0,0.01
2013-1-29,44,37,30,-100,-100,-100,0,0,100,0.00,40.00,0,-999,0,0.01
2013-1-30,45,34,26,-100,-100,-100,0,0,100,0.00,40.00,0,-999,0,0.01
2013-1-31,47,33,23,-100,-100,-100,0,0,100,0.00,40.00,0,-999,0,0.00
2013-2-1,44,31,21,-100,-100,-100,0,0,100,0.00,40.00,0,-999,0,0.00
2013-2-2,42,32,24,-100,-100,-100,0,0,100,0.00,40.00,0,-999,0,0.00
2013-2-3,47,33,24,-100,-100,-100,0,0,100,0.00,40.00,0,-999,0,0.00
2013-2-4,44,33,23,-100,-100,-100,0,0,100,0.00,40.00,0,-999,0,0.00
2013-2-5,50,38,29,-100,-100,-100,0,0,100,0.00,40.00,0,-999,0,0.00
2013-2-6,42,30,18,-100,-100,-100,0,0,100,0.00,40.00,0,-999,0,0.01
2013-2-7,40,32,18,-100,-100,-100,0,0,100,0.00,40.00,0,-999,0,0.01
2013-2-8,30,23,14,-100,-100,-100,0,0,100,0.00,40.00,0,-999,0,0.00
2013-2-9,33,23,15,-100,-100,-100,0,0,100,0.00,40.00,0,-999,0,0.00
2013-2-10,35,26,17,-100,-100,-100,0,0,100,0.00,40.00,0,-999,0,0.01
2013-2-11,39,29,21,-100,-100,-100,0,0,100,0.00,40.00,0,-999,0,0.00
2013-2-12,43,29,18,-100,-100,-100,0,0,100,0.00,40.00,0,-999,0,0.00
2013-2-13,44,31,21,-100,-100,-100,0,0,100,0.00,40.00,0,-999,0,0.00
2013-2-14,46,34,25,-100,-100,-100,0,0,100,0.00,40.00,0,-999,0,0.00
2013-2-15,47,33,24,-100,-100,-100,0,0,100,0.00,40.00,0,-999,0,0.00
2013-2-16,47,32,22,-100,-100,-100,0,0,100,0.00,40.00,0,-999,0,0.00
2013-2-17,47,34,23,-100,-100,-100,0,0,100,0.00,40.00,0,-999,0,0.00
2013-2-18,47,33,23,-100,-100,-100,0,0,100,0.00,40.00,0,-999,0,0.00
2013-2-19,35,28,21,-100,-100,-100,0,0,100,0.00,40.00,0,-999,0,0.01
2013-2-20,35,28,20,-100,-100,-100,0,0,100,0.00,40.00,0,-999,0,0.01
2013-2-21,34,27,20,-100,-100,-100,0,0,100,0.00,40.00,0,-999,0,0.02
2013-2-22,45,32,18,-100,-100,-100,0,0,100,0.00,40.00,0,-999,0,0.02
2013-2-23,41,34,26,-100,-100,-100,0,0,100,0.00,40.00,0,-999,0,0.00
2013-2-24,38,28,22,-100,-100,-100,0,0,100,0.00,40.00,0,-999,0,0.00
2013-2-25,47,32,19,-100,-100,-100,0,0,100,0.00,40.00,0,-999,0,0.00
2013-2-26,40,27,19,-100,-100,-100,0,0,100,0.00,40.00,0,-999,0,0.00
2013-2-27,48,29,18,-100,-100,-100,0,0,100,0.00,40.00,0,-999,0,0.00
2013-2-28,49,34,26,-100,-100,-100,0,0,100,0.00,40.00,0,-999,0,0.00
2013-3-1,49,36,27,-100,-100,-100,0,0,100,0.00,40.00,0,-999,0,0.00
2013-3-2,56,42,29,-100,-100,-100,0,0,100,0.00,40.00,0,-999,0,0.00
2013-3-3,43,38,32,-100,-100,-100,0,0,100,0.00,40.00,0,-999,0,0.01
2013-3-4,43,34,28,-100,-100,-100,0,0,100,0.00,40.00,0,-999,0,0.01
2013-3-5,47,40,32,-100,-100,-100,0,0,100,0.00,40.00,0,-999,0,0.01
2013-3-6,34,31,28,-100,-100,-100,0,0,100,0.00,40.00,0,-999,0,0.03
2013-3-7,33,29,26,-100,-100,-100,0,0,100,0.00,40.00,0,-999,0,0.02
2013-3-8,39,30,20,-100,-100,-100,0,0,100,0.00,40.00,0,-999,0,0.01
2013-3-9,43,32,24,-100,-100,-100,0,0,100,0.00,40.00,0,-999,0,0.01
2013-3-10,47,31,18,-100,-100,-100,0,0,100,0.00,40.00,0,-999,0,0.00
2013-3-11,51,34,23,-100,-100,-100,0,0,100,0.00,40.00,0,-999,0,0.00
2013-3-12,53,38,26,-100,-100,-100,0,0,100,0.00,40.00,0,-999,0,0.00
2013-3-13,52,39,30,-100,-100,-100,0,0,100,0.00,40.00,0,-999,0,0.00
2013-3-14,63,41,32,-100,-100,-100,0,0,100,0.00,40.00,0,-999,0,0.00
2013-3-15,58,41,30,-100,-100,-100,0,0,100,0.00,40.00,0,-999,0,0.00
2013-3-16,56,40,27,-100,-100,-100,0,0,100,0.00,40.00,0,-999,0,0.00
2013-3-17,52,38,26,-100,-100,-100,0,0,100,0.00,40.00,0,-999,0,0.00
2013-3-18,54,41,27,-100,-100,-100,0,0,100,0.00,40.00,0,-999,0,0.01
2013-3-19,52,44,33,-100,-100,-100,0,0,100,0.00,40.00,0,-999,0,0.00
2013-3-20,43,40,36,-100,-100,-100,0,0,100,0.00,40.00,0,-999,0,0.02
2013-3-21,48,38,27,-100,-100,-100,0,0,100,0.00,40.00,0,-999,0,0.01
2013-3-22,45,33,24,-100,-100,-100,0,0,100,0.00,40.00,0,-999,0,0.00
2013-3-23,51,35,20,-100,-100,-100,0,0,100,0.00,40.00,0,-999,0,0.00
2013-3-24,55,39,27,-100,-100,-100,0,0,100,0.00,40.00,0,-999,0,0.00
2013-3-25,55,40,27,-100,-100,-100,0,0,100,0.00,40.00,0,-999,0,0.02
2013-3-26,50,44,39,-100,-100,-100,0,0,100,0.00,40.00,0,-999,0,0.00
2013-3-27,52,42,33,-100,-100,-100,0,0,100,0.00,40.00,0,-999,0,0.00
2013-3-28,52,42,33,-100,-100,-100,0,0,100,0.00,40.00,0,-999,0,0.01
2013-3-29,53,38,31,-100,-100,-100,0,0,100,0.00,40.00,0,-999,0,0.01
2013-3-30,57,42,31,-100,-100,-100,0,0,100,0.00,40.00,0,-999,0,0.01
2013-3-31,47,40,34,-100,-100,-100,0,0,100,0.00,40.00,0,-999,0,0.01
2013-4-1,45,39,33,-100,-100,-100,0,0,100,0.00,40.00,0,-999,0,0.00
2013-4-2,50,37,28,-100,-100,-100,0,0,100,0.00,40.00,0,-999,0,0.00
2013-4-3,55,40,30,-100,-100,-100,0,0,100,0.00,40.00,0,-999,0,0.02
2013-4-4,50,45,39,-100,-100,-100,0,0,100,0.00,40.00,0,-999,0,0.01
2013-4-5,52,41,31,-100,-100,-100,0,0,100,0.00,40.00,0,-999,0,0.01
2013-4-6,51,43,40,-100,-100,-100,0,0,100,0.00,40.00,0,-999,0,0.00
2013-4-7,54,44,35,-100,-100,-100,0,0,100,0.00,40.00,0,-999,0,0.01
2013-4-8,36,32,31,-100,-100,-100,0,0,100,0.00,40.00,0,-999,0,0.01
2013-4-9,47,42,35,-100,-100,-100,0,0,100,0.00,40.00,0,-999,0,0.01
2013-4-10,57,42,30,-100,-100,-100,0,0,100,0.00,40.00,0,-999,0,0.00
2013-4-11,54,46,35,-100,-100,-100,0,0,100,0.00,40.00,0,-999,0,0.00
2013-4-12,55,40,29,-100,-100,-100,0,0,100,0.00,40.00,0,-999,0,0.00
2013-4-13,59,46,35,-100,-100,-100,0,0,100,0.00,40.00,0,-999,0,0.01
2013-4-14,54,42,30,-100,-100,-100,0,0,100,0.00,40.00,0,-999,0,0.01
2013-4-15,42,35,28,-100,-100,-100,0,0,100,0.00,40.00,0,-999,0,0.00
2013-4-16,34,30,28,-100,-100,-100,0,0,100,0.00,40.00,0,-999,0,0.01
2013-4-17,39,32,20,-100,-100,-100,0,0,100,0.00,40.00,0,-999,0,0.01
2013-4-18,51,36,25,-100,-100,-100,0,0,100,0.00,40.00,0,-999,0,0.00
2013-4-19,58,41,29,-100,-100,-100,0,0,100,0.00,40.00,0,-999,0,0.00
2013-4-20,55,41,29,-100,-100,-100,0,0,100,0.00,40.00,0,-999,0,0.00
2013-4-21,58,42,31,-100,-100,-100,0,0,100,0.00,40.00,0,-999,0,0.00
2013-4-22,60,47,33,-100,-100,-100,0,0,100,0.00,40.00,0,-999,0,0.01
2013-4-23,51,38,27,-100,-100,-100,0,0,100,0.00,40.00,0,-999,0,0.00
2013-4-24,56,49,34,-100,-100,-100,0,0,100,0.00,40.00,0,-999,0,0.01
2013-4-25,61,44,29,-100,-100,-100,0,0,100,0.00,40.00,0,-999,0,0.01
2013-4-26,63,49,31,-100,-100,-100,0,0,100,0.00,40.00,0,-999,0,0.00
2013-4-27,68,48,35,-100,-100,-100,0,0,100,0.00,40.00,0,-999,0,0.00
2013-4-28,68,47,31,-100,-100,-100,0,0,100,0.00,40.00,0,-999,0,0.01
2013-4-29,67,51,37,-100,-100,-100,0,0,100,0.00,40.00,0,-999,0,0.00
2013-4-30,56,48,37,-100,-100,-100,0,0,100,0.00,40.00,0,-999,0,0.00
2013-5-1,56,44,28,-100,-100,-100,0,0,100,0.00,40.00,0,-999,0,0.01
2013-5-2,62,45,28,-100,-100,-100,0,0,100,0.00,40.00,0,-999,0,0.01
2013-5-3,63,48,35,-100,-100,-100,0,0,100,0.00,40.00,0,-999,0,0.00
2013-5-4,57,45,33,-100,-100,-100,0,0,100,0.00,40.00,0,-999,0,0.01
2013-5-5,56,44,34,-100,-100,-100,0,0,100,0.00,40.00,0,-999,0,0.01
2013-5-6,45,41,36,-100,-100,-100,0,0,100,0.00,40.00,0,-999,0,0.04
2013-5-7,49,41,36,-100,-100,-100,0,0,100,0.00,40.00,0,-999,0,0.02
2013-5-8,53,44,39,-100,-100,-100,0,0,100,0.00,40.00,0,-999,0,0.01
2013-5-9,60,47,35,-100,-100,-100,0,0,100,0.00,40.00,0,-999,0,0.00
2013-5-10,65,49,37,-100,-100,-100,0,0,100,0.00,40.00,0,-999,0,0.00
2013-5-11,65,51,39,-100,-100,-100,0,0,100,0.00,40.00,0,-999,0,0.00
2013-5-12,72,53,39,-100,-100,-100,0,0,100,0.00,40.00,0,-999,0,0.00
2013-5-13,70,55,40,-100,-100,-100,0,0,100,0.00,40.00,0,-999,0,0.01
2013-5-14,62,48,39,-100,-100,-100,0,0,100,0.00,40.00,0,-999,0,0.00
2013-5-15,64,50,37,-100,-100,-100,0,0,100,0.00,40.00,0,-999,0,0.02
2013-5-16,49,45,38,-100,-100,-100,0,0,100,0.00,40.00,0,-999,0,0.00
2013-5-17,56,46,35,-100,-100,-100,0,0,100,0.00,40.00,0,-999,0,0.01
2013-5-18,58,42,29,-100,-100,-100,0,0,100,0.00,40.00,0,-999,0,0.00
2013-5-19,57,43,33,-100,-100,-100,0,0,100,0.00,40.00,0,-999,0,0.00
2013-5-20,62,48,31,-100,-100,-100,0,0,100,0.00,40.00,0,-999,0,0.00
2013-5-21,61,54,39,-100,-100,-100,0,0,100,0.00,40.00,0,-999,0,0.02
2013-5-22,53,46,30,-100,-100,-100,0,0,100,0.00,40.00,0,-999,0,0.01
2013-5-23,50,39,27,-100,-100,-100,0,0,100,0.00,40.00,0,-999,0,0.01
2013-5-24,61,43,27,-100,-100,-100,0,0,100,0.00,40.00,0,-999,0,0.00
2013-5-25,60,49,37,-100,-100,-100,0,0,100,0.00,40.00,0,-999,0,0.00
2013-5-26,58,48,38,-100,-100,-100,0,0,100,0.00,40.00,0,-999,0,0.00
2013-5-27,55,43,32,-100,-100,-100,0,0,100,0.00,40.00,0,-999,0,0.01
2013-5-28,56,47,43,-100,-100,-100,0,0,100,0.00,40.00,0,-999,0,0.01
2013-5-29,59,50,39,-100,-100,-100,0,0,100,0.00,40.00,0,-999,0,0.01
2013-5-30,64,46,33,-100,-100,-100,0,0,100,0.00,40.00,0,-999,0,0.00
2013-5-31,63,47,33,-100,-100,-100,0,0,100,0.00,40.00,0,-999,0,0.01
2013-6-1,72,53,35,-100,-100,-100,0,0,100,0.00,40.00,0,-999,0,0.00
2013-6-2,74,54,41,-100,-100,-100,0,0,100,0.00,40.00,0,-999,0,0.00
2013-6-3,70,57,41,-100,-100,-100,0,0,100,0.00,40.00,0,-999,0,0.00
2013-6-4,72,58,41,-100,-100,-100,0,0,100,0.00,40.00,0,-999,0,0.00
2013-6-5,74,57,43,-100,-100,-100,0,0,100,0.00,40.00,0,-999,0,0.00
2013-6-6,75,59,45,-100,-100,-100,0,0,100,0.00,40.00,0,-999,0,0.00
2013-6-7,77,57,43,-100,-100,-100,0,0,100,0.00,40.00,0,-999,0,0.00
2013-6-8,74,58,44,-100,-100,-100,0,0,100,0.00,40.00,0,-999,0,0.01
2013-6-9,79,59,47,-100,-100,-100,0,0,100,0.00,40.00,0,-999,0,0.00
2013-6-10,71,56,47,-100,-100,-100,0,0,100,0.00,40.00,0,-999,0,0.00
2013-6-11,68,60,48,-100,-100,-100,0,0,100,0.00,40.00,0,-999,0,0.01
2013-6-12,68,62,53,-100,-100,-100,0,0,100,0.00,40.00,0,-999,0,0.01
2013-6-13,64,54,36,-100,-100,-100,0,0,100,0.00,40.00,0,-999,0,0.00
2013-6-14,61,48,33,-100,-100,-100,0,0,100,0.00,40.00,0,-999,0,0.02
2013-6-15,67,54,36,-100,-100,-100,0,0,100,0.00,40.00,0,-999,0,0.00
2013-6-16,66,52,35,-100,-100,-100,0,0,100,0.00,40.00,0,-999,0,0.00
2013-6-17,69,56,36,-100,-100,-100,0,0,100,0.00,40.00,0,-999,0,0.00
2013-6-18,62,55,42,-100,-100,-100,0,0,100,0.00,40.00,0,-999,0,0.01
2013-6-19,59,50,36,-100,-100,-100,0,0,100,0.00,40.00,0,-999,0,0.00
2013-6-20,61,41,31,-100,-100,-100,0,0,100,0.00,40.00,0,-999,0,0.00
2013-6-22,68,59,43,-100,-100,-100,0,0,100,0.00,40.00,0,-999,0,0.00
2013-6-23,60,52,38,-100,-100,-100,0,0,100,0.00,40.00,0,-999,0,0.02
2013-6-24,56,51,47,-100,-100,-100,0,0,100,0.00,40.00,0,-999,0,0.02
2013-6-25,57,54,49,-100,-100,-100,0,0,100,0.00,40.00,0,-999,0,0.02
2013-6-26,70,61,52,-100,-100,-100,0,0,100,0.00,40.00,0,-999,0,0.01
2013-6-27,73,56,45,-100,-100,-100,0,0,100,0.00,40.00,0,-999,0,0.00
2013-6-28,78,65,49,-100,-100,-100,0,0,100,0.00,40.00,0,-999,0,0.00
2013-6-29,77,64,49,-100,-100,-100,0,0,100,0.00,40.00,0,-999,0,0.00
2013-6-30,82,67,50,-100,-100,-100,0,0,100,0.00,40.00,0,-999,0,0.00
2013-7-1,77,62,54,-100,-100,-100,0,0,100,0.00,40.00,0,-999,0,0.00
2013-7-2,74,63,54,-100,-100,-100,0,0,100,0.00,40.00,0,-999,0,1.09
2013-7-3,71,61,51,-100,-100,-100,0,0,100,0.00,40.00,0,-999,0,0.00
2013-7-4,80,69,52,-100,-100,-100,0,0,100,0.00,40.00,0,-999,0,0.00
2013-7-5,79,71,51,-100,-100,-100,0,0,100,0.00,40.00,0,-999,0,0.00
2013-7-6,75,68,61,-100,-100,-100,0,0,100,0.00,40.00,0,-999,0,0.00
2013-7-7,78,64,51,-100,-100,-100,0,0,100,0.00,40.00,0,-999,0,0.00
2013-7-8,77,62,46,-100,-100,-100,0,0,100,0.00,40.00,0,-999,0,0.00
2013-7-9,71,55,45,-100,-100,-100,0,0,100,0.00,40.00,0,-999,0,0.00
2013-7-10,76,65,42,-100,-100,-100,0,0,100,0.00,40.00,0,-999,0,0.00
2013-7-11,73,62,54,-100,-100,-100,0,0,100,0.00,40.00,0,-999,0,0.00
2013-7-12,71,56,42,-100,-100,-100,0,0,100,0.00,40.00,0,-999,0,0.00
2013-7-13,72,59,39,-100,-100,-100,0,0,100,0.00,40.00,0,-999,0,0.00
2013-7-14,74,54,43,-100,-100,-100,0,0,100,0.00,40.00,0,-999,0,0.00
2013-7-15,73,61,47,-100,-100,-100,0,0,100,0.00,40.00,0,-999,0,0.00
2013-7-16,71,60,48,-100,-100,-100,0,0,100,0.00,40.00,0,-999,0,0.00
2013-7-17,72,54,39,-100,-100,-100,0,0,100,0.00,40.00,0,-999,0,0.00
2013-7-18,73,61,44,-100,-100,-100,0,0,100,0.00,40.00,0,-999,0,0.00
2013-7-19,80,63,47,-100,-100,-100,0,0,100,0.00,40.00,0,-999,0,0.00
2013-7-20,81,66,47,-100,-100,-100,0,0,100,0.00,40.00,0,-999,0,0.00
2013-7-21,85,74,51,-100,-100,-100,0,0,100,0.00,40.00,0,-999,0,0.00
2013-7-22,78,70,59,-100,-100,-100,0,0,100,0.00,40.00,0,-999,0,0.00
2013-7-23,72,65,55,-100,-100,-100,0,0,100,0.00,40.00,0,-999,0,0.01
2013-7-24,75,65,48,-100,-100,-100,0,0,100,0.00,40.00,0,-999,0,0.00
2013-7-25,72,62,51,-100,-100,-100,0,0,100,0.00,40.00,0,-999,0,0.01
2013-7-26,78,60,50,-100,-100,-100,0,0,100,0.00,40.00,0,-999,0,0.00
2013-7-27,76,67,46,-100,-100,-100,0,0,100,0.00,40.00,0,-999,0,0.00
2013-7-28,75,62,45,-100,-100,-100,0,0,100,0.00,40.00,0,-999,0,0.00
2013-7-29,73,61,44,-100,-100,-100,0,0,100,0.00,40.00,0,-999,0,0.00
2013-7-30,73,60,47,-100,-100,-100,0,0,100,0.00,40.00,0,-999,0,0.00
2013-7-31,74,63,47,-100,-100,-100,0,0,100,0.00,40.00,0,-999,0,0.00
2013-8-1,69,62,46,-100,-100,-100,0,0,100,0.00,40.00,0,-999,0,0.00
2013-8-2,69,52,36,-100,-100,-100,0,0,100,0.00,40.00,0,-999,0,0.00
2013-8-3,71,57,40,-100,-100,-100,0,0,100,0.00,40.00,0,-999,0,0.00
2013-8-4,74,57,41,-100,-100,-100,0,0,100,0.00,40.00,0,-999,0,0.00
2013-8-5,75,59,42,-100,-100,-100,0,0,100,0.00,40.00,0,-999,0,0.00
2013-8-6,74,58,43,-100,-100,-100,0,0,100,0.00,40.00,0,-999,0,0.00
2013-8-7,70,62,49,-100,-100,-100,0,0,100,0.00,40.00,0,-999,0,0.00
2013-8-8,66,56,43,-100,-100,-100,0,0,100,0.00,40.00,0,-999,0,0.01
2013-8-9,70,56,43,-100,-100,-100,0,0,100,0.00,40.00,0,-999,0,0.00
2013-8-10,68,57,42,-100,-100,-100,0,0,100,0.00,40.00,0,-999,0,0.00
2013-8-11,70,56,39,-100,-100,-100,0,0,100,0.00,40.00,0,-999,0,0.00
2013-8-12,72,57,40,-100,-100,-100,0,0,100,0.00,40.00,0,-999,0,0.00
2013-8-13,75,55,40,-100,-100,-100,0,0,100,0.00,40.00,0,-999,0,0.00
2013-8-14,63,43,39,-100,-100,-100,0,0,100,0.00,40.00,0,-999,0,0.00
2013-8-15,76,59,42,-100,-100,-100,0,0,100,0.00,40.00,0,-999,0,0.00
2013-8-16,77,64,40,-100,-100,-100,0,0,100,0.00,40.00,0,-999,0,0.00
2013-8-17,57,49,46,-100,-100,-100,0,0,100,0.00,40.00,0,-999,0,0.00
2013-8-26,70,56,41,-100,-100,-100,0,0,100,0.00,40.00,0,-999,0,0.00
2013-8-27,62,50,41,-100,-100,-100,0,0,100,0.00,40.00,0,-999,0,0.00
2013-8-28,71,66,55,-100,-100,-100,0,0,100,0.00,40.00,0,-999,0,0.00
2013-8-29,74,63,49,-100,-100,-100,0,0,100,0.00,40.00,0,-999,0,0.00
2013-8-30,78,66,44,-100,-100,-100,0,0,100,0.00,40.00,0,-999,0,0.00
2013-8-31,75,64,46,-100,-100,-100,0,0,100,0.00,40.00,0,-999,0,0.00
2013-9-1,67,61,52,-100,-100,-100,0,0,100,0.00,40.00,0,-999,0,0.00
2013-9-2,71,62,55,-100,-100,-100,0,0,100,0.00,40.00,0,-999,0,0.00
2013-9-3,73,62,51,-100,-100,-100,0,0,100,0.00,40.00,0,-999,0,0.00
2013-9-4,74,64,47,-100,-100,-100,0,0,100,0.00,40.00,0,-999,0,0.00
2013-9-5,70,64,59,-100,-100,-100,0,0,100,0.00,40.00,0,-999,0,0.00
2013-9-6,75,63,47,-100,-100,-100,0,0,100,0.00,40.00,0,-999,0,0.00
2013-9-7,75,62,48,-100,-100,-100,0,0,100,0.00,40.00,0,-999,0,0.00
2013-9-8,74,59,41,-100,-100,-100,0,0,100,0.00,40.00,0,-999,0,0.00
2013-9-9,73,61,42,-100,-100,-100,0,0,100,0.00,40.00,0,-999,0,0.00
2013-9-10,70,64,48,-100,-100,-100,0,0,100,0.00,40.00,0,-999,0,0.00
2013-9-11,71,60,43,-100,-100,-100,0,0,100,0.00,40.00,0,-999,0,0.00
2013-9-12,70,56,44,-100,-100,-100,0,0,100,0.00,40.00,0,-999,0,0.00
2013-9-13,69,54,45,-100,-100,-100,0,0,100,0.00,40.00,0,-999,0,0.00
2013-9-14,69,54,44,-100,-100,-100,0,0,100,0.00,40.00,0,-999,0,0.00
2013-9-15,75,58,45,-100,-100,-100,0,0,100,0.00,40.00,0,-999,0,0.00
2013-9-16,73,64,58,-100,-100,-100,0,0,100,0.00,40.00,0,-999,0,0.00
2013-9-17,63,55,36,-100,-100,-100,0,0,100,0.00,40.00,0,-999,0,0.00
2013-9-18,35,33,32,-100,-100,-100,0,0,100,0.00,40.00,0,-999,0,0.00
2013-9-19,66,48,33,-100,-100,-100,0,0,100,0.00,40.00,0,-999,0,0.00
2013-9-20,69,56,36,-100,-100,-100,0,0,100,0.00,40.00,0,-999,0,0.00
2013-9-21,55,47,36,-100,-100,-100,0,0,100,0.00,40.00,0,-999,0,0.02
2013-9-22,55,42,32,-100,-100,-100,0,0,100,0.00,40.00,0,-999,0,0.01
2013-9-23,65,45,33,-100,-100,-100,0,0,100,0.00,40.00,0,-999,0,0.00
2013-9-24,61,55,46,-100,-100,-100,0,0,100,0.00,40.00,0,-999,0,0.00
2013-9-25,50,41,32,-100,-100,-100,0,0,100,0.00,40.00,0,-999,0,0.00
2013-9-26,45,39,30,-100,-100,-100,0,0,100,0.00,40.00,0,-999,0,0.00
2013-9-27,51,36,26,-100,-100,-100,0,0,100,0.00,40.00,0,-999,0,0.00
2013-9-28,65,46,32,-100,-100,-100,0,0,100,0.00,40.00,0,-999,0,0.00
2013-10-2,60,49,33,-100,-100,-100,0,0,100,0.00,40.00,0,-999,0,0.00
2013-10-3,46,38,29,-100,-100,-100,0,0,100,0.00,40.00,0,-999,0,0.00
2013-10-4,51,43,35,-100,-100,-100,0,0,100,0.00,40.00,0,-999,0,0.00
2013-10-5,58,42,26,-100,-100,-100,0,0,100,0.00,40.00,0,-999,0,0.00
2013-10-6,64,44,29,-100,-100,-100,0,0,100,0.00,40.00,0,-999,0,0.00
2013-10-7,65,43,31,-100,-100,-100,0,0,100,0.00,40.00,0,-999,0,0.00
2013-10-8,57,46,32,-100,-100,-100,0,0,100,0.00,40.00,0,-999,0,0.01
2013-10-9,44,41,36,-100,-100,-100,0,0,100,0.00,40.00,0,-999,0,0.01
2013-10-10,55,41,30,-100,-100,-100,0,0,100,0.00,40.00,0,-999,0,0.00
2013-10-11,54,40,28,-100,-100,-100,0,0,100,0.00,40.00,0,-999,0,0.00
2013-10-12,56,41,29,-100,-100,-100,0,0,100,0.00,40.00,0,-999,0,0.00
2013-10-13,47,38,31,-100,-100,-100,0,0,100,0.00,40.00,0,-999,0,0.01
2013-10-21,42,40,37,-100,-100,-100,0,0,100,0.00,40.00,0,-999,0,0.00
2013-10-22,56,43,31,-100,-100,-100,0,0,100,0.00,40.00,0,-999,0,0.00
2013-10-23,58,40,30,-100,-100,-100,0,0,100,0.00,40.00,0,-999,0,0.00
2013-10-24,60,52,33,-100,-100,-100,0,0,100,0.00,40.00,0,-999,0,0.00
2013-10-25,34,31,29,-100,-100,-100,0,0,100,0.00,40.00,0,-999,0,0.00
2013-10-26,59,40,31,-100,-100,-100,0,0,100,0.00,40.00,0,-999,0,0.00
2013-10-27,50,41,33,-100,-100,-100,0,0,100,0.00,40.00,0,-999,0,0.00
2013-11-2,49,42,31,-100,-100,-100,0,0,100,0.00,40.00,0,-999,0,0.00
2013-11-3,46,41,35,-100,-100,-100,0,0,100,0.00,40.00,0,-999,0,0.00
2013-11-4,41,35,25,-100,-100,-100,0,0,100,0.00,40.00,0,-999,0,0.00
2013-11-5,46,34,25,-100,-100,-100,0,0,100,0.00,40.00,0,-999,0,0.00
2013-11-6,49,37,29,-100,-100,-100,0,0,100,0.00,40.00,0,-999,0,0.00
2013-11-7,48,42,35,-100,-100,-100,0,0,100,0.00,40.00,0,-999,0,0.00
2013-11-8,58,50,36,-100,-100,-100,0,0,100,0.00,40.00,0,-999,0,0.00
2013-11-12,60,47,35,-100,-100,-100,0,0,100,0.00,40.00,0,-999,0,0.00
2013-11-13,54,50,47,-100,-100,-100,0,0,100,0.00,40.00,0,-999,0,0.00
2013-11-14,57,41,31,-100,-100,-100,0,0,100,0.00,40.00,0,-999,0,0.00
2013-11-15,43,42,41,-100,-100,-100,0,0,100,0.00,40.00,0,-999,0,0.00
2013-11-16,47,37,29,-100,-100,-100,0,0,100,0.00,40.00,0,-999,0,0.00
2013-11-17,52,52,52,-100,-100,-100,0,0,100,0.00,40.00,0,-999,0,0.00
2013-11-18,51,36,27,-100,-100,-100,0,0,100,0.00,40.00,0,-999,0,0.00
2013-11-19,47,42,39,-100,-100,-100,0,0,100,0.00,40.00,0,-999,0,0.00
2013-11-20,39,36,33,-100,-100,-100,0,0,100,0.00,40.00,0,-999,0,0.01
2013-11-21,33,29,25,-100,-100,-100,0,0,100,0.00,40.00,0,-999,0,0.01
2013-11-22,27,26,26,-100,-100,-100,0,0,100,0.00,40.00,0,-999,0,0.00
2013-11-23,40,34,30,-100,-100,-100,0,0,100,0.00,40.00,0,-999,0,0.00
2013-11-24,45,32,23,-100,-100,-100,0,0,100,0.00,40.00,0,-999,0,0.00
2013-11-25,24,23,23,-100,-100,-100,0,0,100,0.00,40.00,0,-999,0,0.00
2013-11-26,48,33,26,-100,-100,-100,0,0,100,0.00,40.00,0,-999,0,0.00
2013-11-27,48,36,30,-100,-100,-100,0,0,100,0.00,40.00,0,-999,0,0.00
2013-11-28,45,34,29,-100,-100,-100,0,0,100,0.00,40.00,0,-999,0,0.00
2013-11-29,46,32,25,-100,-100,-100,0,0,100,0.00,40.00,0,-999,0,0.00
2013-11-30,49,33,25,-100,-100,-100,0,0,100,0.00,40.00,0,-999,0,0.00
2013-12-2,54,50,44,-100,-100,-100,0,0,100,0.00,40.00,0,-999,0,0.00
2013-12-3,35,23,14,-100,-100,-100,0,0,100,0.00,40.00,0,-999,0,0.00
2013-12-4,28,17,7,-100,-100,-100,0,0,100,0.00,40.00,0,-999,0,0.01
2013-12-5,31,21,7,-100,-100,-100,0,0,100,0.00,40.00,0,-999,0,0.00
2013-12-6,30,25,23,-100,-100,-100,0,0,100,0.00,40.00,0,-999,0,0.01
2013-12-7,23,17,7,-100,-100,-100,0,0,100,0.00,40.00,0,-999,0,0.03
2013-12-8,28,5,-3,-100,-100,-100,0,0,100,0.00,40.00,0,-999,0,0.00
2013-12-9,28,13,3,-100,-100,-100,0,0,100,0.00,40.00,0,-999,0,0.00
2013-12-10,40,24,11,-100,-100,-100,0,0,100,0.00,40.00,0,-999,0,0.00
2013-12-11,41,27,16,-100,-100,-100,0,0,100,0.00,40.00,0,-999,0,0.00
2013-12-12,29,20,15,-100,-100,-100,0,0,100,0.00,40.00,0,-999,0,0.00
2013-12-13,43,30,18,-100,-100,-100,0,0,100,0.00,40.00,0,-999,0,0.00
2013-12-14,43,27,17,-100,-100,-100,0,0,100,0.00,40.00,0,-999,0,0.00
2013-12-15,45,32,20,-100,-100,-100,0,0,100,0.00,40.00,0,-999,0,0.00
2013-12-16,45,31,23,-100,-100,-100,0,0,100,0.00,40.00,0,-999,0,0.00
2013-12-17,33,28,24,-100,-100,-100,0,0,100,0.00,40.00,0,-999,0,0.00
2013-12-18,33,30,29,-100,-100,-100,0,0,100,0.00,40.00,0,-999,0,0.00
2013-12-19,38,30,23,-100,-100,-100,0,0,100,0.00,40.00,0,-999,0,0.02
2013-12-20,42,20,12,-100,-100,-100,0,0,100,0.00,40.00,0,-999,0,0.00
2013-12-21,43,30,25,-100,-100,-100,0,0,100,0.00,40.00,0,-999,0,0.00
2013-12-22,48,35,23,-100,-100,-100,0,0,100,0.00,40.00,0,-999,0,0.00
2013-12-23,43,30,24,-100,-100,-100,0,0,100,0.00,40.00,0,-999,0,0.00
2013-12-24,45,29,24,-100,-100,-100,0,0,100,0.00,40.00,0,-999,0,0.00
2013-12-25,40,27,21,-100,-100,-100,0,0,100,0.00,40.00,0,-999,0,0.00
2013-12-26,42,29,19,-100,-100,-100,0,0,100,0.00,40.00,0,-999,0,0.00
2013-12-27,41,30,21,-100,-100,-100,0,0,100,0.00,40.00,0,-999,0,0.00
2013-12-28,38,27,22,-100,-100,-100,0,0,100,0.00,40.00,0,-999,0,0.00
2013-12-29,40,32,23,-100,-100,-100,0,0,100,0.00,40.00,0,-999,0,0.00
2013-12-30,27,24,22,-100,-100,-100,0,0,100,0.00,40.00,0,-999,0,0.00
2013-12-31,50,34,27,-100,-100,-100,0,0,100,0.00,40.00,0,-999,0,0.00
2014-1-1,45,29,23,-100,-100,-100,0,0,100,0.00,40.00,0,-999,0,0.00
2014-1-2,45,30,24,-100,-100,-100,0,0,100,0.00,40.00,0,-999,0,0.00